sensor_id;sensor_type;location;lat;lon;timestamp;pressure;altitude;pressure_sealevel;temperature;humidity
4528;BME280;62320;51.520;6.818;2023-05-03T00:09:00;102361.44;;;6.32;77.02
4528;BME280;62320;51.520;6.818;2023-05-03T00:19:02;102358.09;;;5.95;79.93
4528;BME280;62320;51.520;6.818;2023-05-03T00:29:04;102374.13;;;6.08;76.34
4528;BME280;62320;51.520;6.818;2023-05-03T00:39:05;102375.50;;;5.83;78.80
4528;BME280;62320;51.520;6.818;2023-05-03T00:49:06;102369.78;;;5.70;81.88
4528;BME280;62320;51.520;6.818;2023-05-03T00:59:08;102364.78;;;5.54;83.13
4528;BME280;62320;51.520;6.818;2023-05-03T01:09:21;102365.53;;;5.52;82.36
4528;BME280;62320;51.520;6.818;2023-05-03T01:19:33;102378.75;;;5.42;81.60
4528;BME280;62320;51.520;6.818;2023-05-03T01:29:35;102370.63;;;5.69;76.33
4528;BME280;62320;51.520;6.818;2023-05-03T01:39:43;102363.28;;;5.40;82.93
4528;BME280;62320;51.520;6.818;2023-05-03T01:49:46;102365.84;;;5.40;85.42
4528;BME280;62320;51.520;6.818;2023-05-03T01:59:47;102391.34;;;5.37;84.67
4528;BME280;62320;51.520;6.818;2023-05-03T02:09:49;102391.28;;;5.36;81.64
4528;BME280;62320;51.520;6.818;2023-05-03T02:19:51;102403.59;;;5.25;82.31
4528;BME280;62320;51.520;6.818;2023-05-03T02:29:53;102407.41;;;5.33;83.76
4528;BME280;62320;51.520;6.818;2023-05-03T02:39:55;102416.84;;;5.34;84.08
4528;BME280;62320;51.520;6.818;2023-05-03T02:49:56;102412.66;;;5.36;80.29
4528;BME280;62320;51.520;6.818;2023-05-03T02:59:58;102397.91;;;5.13;81.88
4528;BME280;62320;51.520;6.818;2023-05-03T03:09:59;102389.72;;;4.86;83.51
4528;BME280;62320;51.520;6.818;2023-05-03T03:20:01;102382.25;;;4.91;82.21
4528;BME280;62320;51.520;6.818;2023-05-03T03:30:07;102369.47;;;5.09;78.70
4528;BME280;62320;51.520;6.818;2023-05-03T03:40:08;102375.59;;;5.12;78.67
4528;BME280;62320;51.520;6.818;2023-05-03T03:50:10;102360.97;;;5.10;79.40
4528;BME280;62320;51.520;6.818;2023-05-03T04:00:12;102341.25;;;5.26;77.88
4528;BME280;62320;51.520;6.818;2023-05-03T04:10:14;102328.53;;;5.47;79.63
4528;BME280;62320;51.520;6.818;2023-05-03T04:20:16;102349.81;;;5.09;83.81
4528;BME280;62320;51.520;6.818;2023-05-03T04:30:18;102371.28;;;5.11;80.24
4528;BME280;62320;51.520;6.818;2023-05-03T04:40:20;102384.41;;;5.17;79.80
4528;BME280;62320;51.520;6.818;2023-05-03T04:50:21;102392.47;;;5.25;79.34
4528;BME280;62320;51.520;6.818;2023-05-03T05:00:23;102383.19;;;5.46;79.27
4528;BME280;62320;51.520;6.818;2023-05-03T05:10:25;102396.88;;;5.64;79.95
4528;BME280;62320;51.520;6.818;2023-05-03T05:20:26;102410.00;;;5.70;80.58
4528;BME280;62320;51.520;6.818;2023-05-03T05:30:28;102431.41;;;5.88;80.13
4528;BME280;62320;51.520;6.818;2023-05-03T05:40:30;102428.56;;;6.01;79.80
4528;BME280;62320;51.520;6.818;2023-05-03T05:50:31;102439.78;;;6.41;79.55
4528;BME280;62320;51.520;6.818;2023-05-03T06:00:33;102438.75;;;6.97;81.73
4528;BME280;62320;51.520;6.818;2023-05-03T06:10:35;102449.28;;;7.46;77.82
4528;BME280;62320;51.520;6.818;2023-05-03T06:20:36;102451.00;;;7.89;80.46
4528;BME280;62320;51.520;6.818;2023-05-03T06:30:38;102447.47;;;8.55;75.63
4528;BME280;62320;51.520;6.818;2023-05-03T06:40:39;102448.47;;;9.11;75.32
4528;BME280;62320;51.520;6.818;2023-05-03T06:50:44;102461.00;;;9.52;74.40
4528;BME280;62320;51.520;6.818;2023-05-03T07:00:45;102458.91;;;9.95;71.26
4528;BME280;62320;51.520;6.818;2023-05-03T07:10:47;102455.75;;;10.65;69.81
4528;BME280;62320;51.520;6.818;2023-05-03T07:20:48;102449.25;;;10.81;67.84
4528;BME280;62320;51.520;6.818;2023-05-03T07:30:50;102436.03;;;11.04;67.91
4528;BME280;62320;51.520;6.818;2023-05-03T07:40:52;102414.09;;;11.62;68.33
4528;BME280;62320;51.520;6.818;2023-05-03T07:50:53;102410.19;;;12.21;64.78
4528;BME280;62320;51.520;6.818;2023-05-03T08:00:55;102423.16;;;12.21;63.51
4528;BME280;62320;51.520;6.818;2023-05-03T08:10:56;102412.97;;;12.77;62.97
4528;BME280;62320;51.520;6.818;2023-05-03T08:20:58;102408.34;;;13.09;62.64
4528;BME280;62320;51.520;6.818;2023-05-03T08:31:00;102406.56;;;13.05;59.41
4528;BME280;62320;51.520;6.818;2023-05-03T08:41:14;102384.88;;;13.62;62.54
4528;BME280;62320;51.520;6.818;2023-05-03T08:51:18;102387.09;;;13.36;57.99
4528;BME280;62320;51.520;6.818;2023-05-03T09:01:20;102379.78;;;13.71;58.53
4528;BME280;62320;51.520;6.818;2023-05-03T09:11:23;102389.66;;;13.97;52.95
4528;BME280;62320;51.520;6.818;2023-05-03T09:21:26;102367.56;;;13.62;55.34
4528;BME280;62320;51.520;6.818;2023-05-03T09:31:29;102374.16;;;14.05;57.01
4528;BME280;62320;51.520;6.818;2023-05-03T09:41:31;102362.22;;;13.53;54.96
4528;BME280;62320;51.520;6.818;2023-05-03T09:51:32;102343.03;;;13.45;54.66
4528;BME280;62320;51.520;6.818;2023-05-03T10:01:34;102336.19;;;13.47;54.38
4528;BME280;62320;51.520;6.818;2023-05-03T10:11:36;102330.56;;;13.20;58.16
4528;BME280;62320;51.520;6.818;2023-05-03T10:21:54;102334.28;;;13.37;57.07
4528;BME280;62320;51.520;6.818;2023-05-03T10:32:03;102325.06;;;12.99;53.71
4528;BME280;62320;51.520;6.818;2023-05-03T10:42:07;102331.69;;;12.81;56.31
4528;BME280;62320;51.520;6.818;2023-05-03T11:02:42;102305.53;;;13.25;56.17
4528;BME280;62320;51.520;6.818;2023-05-03T11:12:51;102292.66;;;13.31;56.42
4528;BME280;62320;51.520;6.818;2023-05-03T11:22:52;102293.63;;;13.40;55.05
4528;BME280;62320;51.520;6.818;2023-05-03T11:32:54;102282.34;;;13.38;57.13
4528;BME280;62320;51.520;6.818;2023-05-03T11:42:59;102271.28;;;13.53;56.88
4528;BME280;62320;51.520;6.818;2023-05-03T11:53:01;102267.75;;;13.48;54.51
4528;BME280;62320;51.520;6.818;2023-05-03T12:03:02;102272.94;;;13.49;54.41
4528;BME280;62320;51.520;6.818;2023-05-03T12:13:04;102264.47;;;13.66;51.17
4528;BME280;62320;51.520;6.818;2023-05-03T12:23:07;102254.22;;;13.76;51.63
4528;BME280;62320;51.520;6.818;2023-05-03T12:33:11;102246.50;;;13.88;55.57
4528;BME280;62320;51.520;6.818;2023-05-03T12:43:15;102224.91;;;13.95;51.83
4528;BME280;62320;51.520;6.818;2023-05-03T12:53:17;102207.75;;;14.14;52.24
4528;BME280;62320;51.520;6.818;2023-05-03T13:03:19;102199.25;;;14.30;50.50
4528;BME280;62320;51.520;6.818;2023-05-03T13:13:23;102188.78;;;14.27;52.58
4528;BME280;62320;51.520;6.818;2023-05-03T13:23:26;102164.50;;;14.28;49.13
4528;BME280;62320;51.520;6.818;2023-05-03T13:33:27;102147.25;;;14.38;49.37
4528;BME280;62320;51.520;6.818;2023-05-03T13:43:29;102135.16;;;14.47;47.56
4528;BME280;62320;51.520;6.818;2023-05-03T13:53:31;102123.03;;;14.45;48.39
4528;BME280;62320;51.520;6.818;2023-05-03T14:03:32;102108.31;;;14.51;50.58
4528;BME280;62320;51.520;6.818;2023-05-03T14:13:34;102088.44;;;14.73;47.12
4528;BME280;62320;51.520;6.818;2023-05-03T14:23:56;102077.94;;;14.61;49.65
4528;BME280;62320;51.520;6.818;2023-05-03T14:33:57;102077.16;;;14.69;50.23
4528;BME280;62320;51.520;6.818;2023-05-03T14:44:01;102072.81;;;14.79;48.33
4528;BME280;62320;51.520;6.818;2023-05-03T14:54:03;102050.28;;;14.81;48.21
4528;BME280;62320;51.520;6.818;2023-05-03T15:04:05;102050.31;;;14.85;50.79
4528;BME280;62320;51.520;6.818;2023-05-03T15:14:08;102049.41;;;14.82;50.85
4528;BME280;62320;51.520;6.818;2023-05-03T15:24:10;102052.91;;;14.87;48.00
4528;BME280;62320;51.520;6.818;2023-05-03T15:34:11;102037.25;;;14.81;51.38
4528;BME280;62320;51.520;6.818;2023-05-03T15:44:13;102028.56;;;14.79;49.79
4528;BME280;62320;51.520;6.818;2023-05-03T15:54:15;102025.97;;;14.88;50.21
4528;BME280;62320;51.520;6.818;2023-05-03T16:04:16;102012.94;;;14.88;47.59
4528;BME280;62320;51.520;6.818;2023-05-03T16:14:18;101997.34;;;14.92;50.10
4528;BME280;62320;51.520;6.818;2023-05-03T16:24:19;101999.94;;;14.97;50.04
4528;BME280;62320;51.520;6.818;2023-05-03T16:34:21;101998.22;;;14.91;50.28
4528;BME280;62320;51.520;6.818;2023-05-03T16:44:23;101983.44;;;14.99;51.87
4528;BME280;62320;51.520;6.818;2023-05-03T16:54:25;101978.25;;;14.96;48.68
4528;BME280;62320;51.520;6.818;2023-05-03T17:04:27;101970.44;;;14.99;49.88
4528;BME280;62320;51.520;6.818;2023-05-03T17:14:29;101965.22;;;15.02;50.89
4528;BME280;62320;51.520;6.818;2023-05-03T17:24:31;101965.25;;;15.01;51.29
4528;BME280;62320;51.520;6.818;2023-05-03T17:34:33;101956.56;;;14.94;51.54
4528;BME280;62320;51.520;6.818;2023-05-03T17:44:36;101951.31;;;14.93;51.36
4528;BME280;62320;51.520;6.818;2023-05-03T17:54:38;101958.28;;;14.95;51.59
4528;BME280;62320;51.520;6.818;2023-05-03T18:04:40;101946.13;;;14.90;49.92
4528;BME280;62320;51.520;6.818;2023-05-03T18:14:42;101948.72;;;14.76;51.40
4528;BME280;62320;51.520;6.818;2023-05-03T18:24:43;101953.88;;;14.66;51.87
4528;BME280;62320;51.520;6.818;2023-05-03T18:34:45;101950.38;;;14.56;52.76
4528;BME280;62320;51.520;6.818;2023-05-03T18:44:47;101939.94;;;14.40;52.54
4528;BME280;62320;51.520;6.818;2023-05-03T18:54:49;101935.53;;;14.28;53.74
4528;BME280;62320;51.520;6.818;2023-05-03T19:04:51;101946.75;;;14.12;52.85
4528;BME280;62320;51.520;6.818;2023-05-03T19:14:53;101939.72;;;13.97;53.21
4528;BME280;62320;51.520;6.818;2023-05-03T19:24:54;101942.31;;;13.91;54.41
4528;BME280;62320;51.520;6.818;2023-05-03T19:34:56;101949.13;;;13.71;54.20
4528;BME280;62320;51.520;6.818;2023-05-03T19:44:57;101957.72;;;13.61;54.84
4528;BME280;62320;51.520;6.818;2023-05-03T19:55:00;101973.13;;;13.37;55.78
4528;BME280;62320;51.520;6.818;2023-05-03T20:05:03;101960.13;;;13.32;55.86
4528;BME280;62320;51.520;6.818;2023-05-03T20:15:05;101962.66;;;13.23;56.18
4528;BME280;62320;51.520;6.818;2023-05-03T20:25:08;101949.50;;;13.05;56.21
4528;BME280;62320;51.520;6.818;2023-05-03T20:35:10;101948.56;;;13.00;55.95
4528;BME280;62320;51.520;6.818;2023-05-03T20:45:12;101946.63;;;12.79;56.55
4528;BME280;62320;51.520;6.818;2023-05-03T20:55:13;101944.81;;;12.72;56.87
4528;BME280;62320;51.520;6.818;2023-05-03T21:05:15;101931.69;;;12.59;57.01
4528;BME280;62320;51.520;6.818;2023-05-03T21:15:16;101922.16;;;12.55;57.33
4528;BME280;62320;51.520;6.818;2023-05-03T21:25:18;101923.72;;;12.39;57.56
4528;BME280;62320;51.520;6.818;2023-05-03T21:35:19;101914.81;;;12.17;58.15
4528;BME280;62320;51.520;6.818;2023-05-03T21:45:21;101915.72;;;12.20;57.95
4528;BME280;62320;51.520;6.818;2023-05-03T21:55:23;101907.78;;;12.06;58.50
4528;BME280;62320;51.520;6.818;2023-05-03T22:05:25;101896.38;;;11.93;58.79
4528;BME280;62320;51.520;6.818;2023-05-03T22:15:29;101896.31;;;11.87;59.00
4528;BME280;62320;51.520;6.818;2023-05-03T22:25:31;101890.91;;;11.71;59.85
4528;BME280;62320;51.520;6.818;2023-05-03T22:35:32;101874.53;;;11.75;59.67
4528;BME280;62320;51.520;6.818;2023-05-03T22:45:35;101876.13;;;11.65;60.16
4528;BME280;62320;51.520;6.818;2023-05-03T22:55:36;101867.34;;;11.56;60.00
4528;BME280;62320;51.520;6.818;2023-05-03T23:05:38;101861.13;;;11.43;60.82
4528;BME280;62320;51.520;6.818;2023-05-03T23:15:39;101850.63;;;11.31;61.46
4528;BME280;62320;51.520;6.818;2023-05-03T23:25:41;101842.81;;;11.29;60.92
4528;BME280;62320;51.520;6.818;2023-05-03T23:35:43;101847.88;;;11.22;61.87
4528;BME280;62320;51.520;6.818;2023-05-03T23:45:44;101839.13;;;11.15;61.82
4528;BME280;62320;51.520;6.818;2023-05-03T23:55:46;101829.44;;;11.02;62.43
